Time;durP1;ratioP1;P1;durP2;ratioP2;P2;SDS_P1;SDS_P2;PMS_P1;PMS_P2;Temp;Humidity;BMP_temperature;BMP_pressure;BME280_temperature;BME280_humidity;BME280_pressure;Samples;Min_cycle;Max_cycle;Signal;HPM_P1;HPM_P2
2022/11/15 00:09:56;;;;;;;13.4;18.7;;;;;;;5.9;89.8;99130;;;;
2022/11/15 00:19:56;;;;;;;13.4;18.7;;;;;;;5.6;89.5;99130;;;;
2022/11/15 00:29:56;;;;;;;11.4;20.4;;;;;;;5.4;89.4;99120;;;;
2022/11/15 00:39:56;;;;;;;11.4;20.4;;;;;;;5.3;89.3;99110;;;;
2022/11/15 00:49:56;;;;;;;11.4;20.4;;;;;;;5.2;89.6;99090;;;;
2022/11/15 01:00:56;;;;;;;8.9;14.8;;;;;;;5.2;89.8;99090;;;;
2022/11/15 01:11:56;;;;;;;8.9;14.8;;;;;;;5;89.9;99100;;;;
2022/11/15 01:21:56;;;;;;;7.9;13.3;;;;;;;4.7;90.4;99090;;;;
2022/11/15 01:32:56;;;;;;;7.9;13.3;;;;;;;4.7;90.1;99080;;;;
2022/11/15 01:42:56;;;;;;;7.9;13.3;;;;;;;4.5;90.3;99080;;;;
2022/11/15 01:53:56;;;;;;;7.1;10.3;;;;;;;4.6;90.4;99080;;;;
2022/11/15 02:03:56;;;;;;;7.1;10.3;;;;;;;4.7;90.4;99080;;;;
2022/11/15 02:14:56;;;;;;;7.1;10.3;;;;;;;4.7;90.2;99060;;;;
2022/11/15 02:24:56;;;;;;;6.6;11;;;;;;;4.7;89.9;99050;;;;
2022/11/15 02:34:56;;;;;;;6.6;11;;;;;;;4.6;89.9;99050;;;;
2022/11/15 02:45:56;;;;;;;6.6;11;;;;;;;4.4;89.8;99040;;;;
2022/11/15 02:56:56;;;;;;;5.7;9.5;;;;;;;4.2;89.9;99030;;;;
2022/11/15 03:06:56;;;;;;;5.7;9.5;;;;;;;4.3;89.8;99020;;;;
2022/11/15 03:17:56;;;;;;;5.7;9.5;;;;;;;4.4;89.5;99010;;;;
2022/11/15 03:27:56;;;;;;;6.2;11.4;;;;;;;4.5;89.4;99010;;;;
2022/11/15 03:38:56;;;;;;;6.2;11.4;;;;;;;4.4;89.2;98990;;;;
2022/11/15 03:49:56;;;;;;;6.2;11.4;;;;;;;4.2;88.6;98980;;;;
2022/11/15 04:00:56;;;;;;;5.6;9.3;;;;;;;3.8;88.5;98960;;;;
2022/11/15 04:10:56;;;;;;;5.6;9.3;;;;;;;3.6;88.8;98940;;;;
2022/11/15 04:32:56;;;;;;;5.6;9.3;;;;;;;3.4;89.2;98910;;;;
2022/11/15 04:43:56;;;;;;;5.6;9.3;;;;;;;3.4;89.1;98900;;;;
2022/11/15 04:54:56;;;;;;;4.3;8.2;;;;;;;3.4;89;98890;;;;
2022/11/15 05:04:56;;;;;;;4.3;8.2;;;;;;;3.1;89.1;98890;;;;
2022/11/15 05:15:56;;;;;;;4.3;8.2;;;;;;;3.1;89.6;98880;;;;
2022/11/15 05:25:56;;;;;;;4.5;8.3;;;;;;;3.1;89.8;98860;;;;
2022/11/15 05:36:56;;;;;;;4.5;8.3;;;;;;;2.9;89.7;98870;;;;
2022/11/15 05:47:56;;;;;;;4.5;8.3;;;;;;;2.8;89.1;98860;;;;
2022/11/15 05:58:56;;;;;;;4.4;8;;;;;;;2.6;88.6;98860;;;;
2022/11/15 06:08:56;;;;;;;4.4;8;;;;;;;2.2;88.9;98860;;;;
2022/11/15 06:18:56;;;;;;;4.4;8;;;;;;;2.3;89;98860;;;;
2022/11/15 06:29:56;;;;;;;6.6;10.3;;;;;;;2;89.4;98850;;;;
2022/11/15 06:39:56;;;;;;;6.6;10.3;;;;;;;2.1;89.6;98850;;;;
2022/11/15 06:50:56;;;;;;;6.6;10.3;;;;;;;2.3;89.8;98860;;;;
2022/11/15 07:00:57;;;;;;;5.4;9.8;;;;;;;2.5;89.9;98860;;;;
2022/11/15 07:11:56;;;;;;;5.4;9.8;;;;;;;2.9;90.1;98860;;;;
2022/11/15 07:21:56;;;;;;;5.7;11.4;;;;;;;3.1;90.1;98850;;;;
2022/11/15 07:31:57;;;;;;;5.7;11.4;;;;;;;3.3;90;98840;;;;
2022/11/15 07:42:56;;;;;;;5.7;11.4;;;;;;;3.4;89.9;98830;;;;
2022/11/15 07:53:56;;;;;;;5.6;10;;;;;;;3.7;89.5;98820;;;;
2022/11/15 08:04:56;;;;;;;5.6;10;;;;;;;4;89.3;98820;;;;
2022/11/15 08:14:56;;;;;;;5.6;10;;;;;;;4.3;88.9;98820;;;;
2022/11/15 08:25:56;;;;;;;6.6;10.6;;;;;;;4.5;88.7;98810;;;;
2022/11/15 08:35:57;;;;;;;6.6;10.6;;;;;;;4.7;88.5;98800;;;;
2022/11/15 08:46:56;;;;;;;6.6;10.6;;;;;;;5.3;88.6;98800;;;;
2022/11/15 08:57:57;;;;;;;8.9;12.7;;;;;;;5.6;87.5;98800;;;;
2022/11/15 09:08:57;;;;;;;8.9;12.7;;;;;;;6.2;87.3;98800;;;;
2022/11/15 09:18:57;;;;;;;8.9;12.7;;;;;;;6.7;86.8;98790;;;;
2022/11/15 09:29:56;;;;;;;11.5;16;;;;;;;7.1;85.3;98780;;;;
2022/11/15 09:39:56;;;;;;;11.5;16;;;;;;;7;84.7;98790;;;;
2022/11/15 09:49:56;;;;;;;11.5;16;;;;;;;7;84.8;98780;;;;
2022/11/15 10:00:56;;;;;;;16.5;23.5;;;;;;;7.2;84.8;98770;;;;
2022/11/15 10:11:57;;;;;;;16.5;23.5;;;;;;;7.4;85;98760;;;;
2022/11/15 10:21:56;;;;;;;22.1;27.7;;;;;;;7.5;84.8;98730;;;;
2022/11/15 10:32:57;;;;;;;22.1;27.7;;;;;;;7.9;84.2;98710;;;;
2022/11/15 10:42:57;;;;;;;22.1;27.7;;;;;;;8.5;83.8;98690;;;;
2022/11/15 10:53:56;;;;;;;25.2;29.2;;;;;;;9.1;82.8;98670;;;;
2022/11/15 11:03:56;;;;;;;25.2;29.2;;;;;;;9.4;82.1;98650;;;;
2022/11/15 11:13:56;;;;;;;25.2;29.2;;;;;;;9.9;79.9;98640;;;;
2022/11/15 11:24:56;;;;;;;23.5;28.1;;;;;;;10.1;78.5;98640;;;;
2022/11/15 11:35:57;;;;;;;23.5;28.1;;;;;;;9.8;78.7;98640;;;;
2022/11/15 11:45:56;;;;;;;23.5;28.1;;;;;;;9.6;79.2;98620;;;;
2022/11/15 11:55:57;;;;;;;27.6;35.2;;;;;;;9.6;79.7;98600;;;;
2022/11/15 12:05:57;;;;;;;27.6;35.2;;;;;;;9.6;80.5;98590;;;;
2022/11/15 12:16:57;;;;;;;27.6;35.2;;;;;;;9.7;80.8;98580;;;;
2022/11/15 12:26:57;;;;;;;25.2;28.8;;;;;;;10;80.3;98570;;;;
2022/11/15 12:37:57;;;;;;;25.2;28.8;;;;;;;10.3;78.2;98560;;;;
2022/11/15 12:47:57;;;;;;;25.2;28.8;;;;;;;10.6;78.6;98550;;;;
2022/11/15 12:58:57;;;;;;;21.8;25;;;;;;;10.8;78.7;98530;;;;
2022/11/15 13:08:57;;;;;;;21.8;25;;;;;;;10.8;78.4;98520;;;;
2022/11/15 13:19:57;;;;;;;21.8;25;;;;;;;10.8;78;98520;;;;
2022/11/15 13:29:57;;;;;;;27.4;30.7;;;;;;;10.9;78.1;98510;;;;
2022/11/15 13:40:57;;;;;;;27.4;30.7;;;;;;;11;78.5;98490;;;;
2022/11/15 13:51:57;;;;;;;23.7;27.2;;;;;;;10.9;78.4;98470;;;;
2022/11/15 14:01:57;;;;;;;23.7;27.2;;;;;;;10.9;78.6;98470;;;;
2022/11/15 14:12:57;;;;;;;23.7;27.2;;;;;;;10.6;78.6;98470;;;;
2022/11/15 14:23:57;;;;;;;28.8;35.4;;;;;;;10.6;79;98460;;;;
2022/11/15 14:33:57;;;;;;;28.8;35.4;;;;;;;10.4;79.6;98450;;;;
2022/11/15 14:43:57;;;;;;;28.8;35.4;;;;;;;10.2;80.6;98450;;;;
2022/11/15 14:54:57;;;;;;;30.2;42.2;;;;;;;10.1;80.4;98440;;;;
2022/11/15 15:05:00;;;;;;;30.2;42.2;;;;;;;10;80.8;98420;;;;
2022/11/15 15:15:57;;;;;;;30.2;42.2;;;;;;;10;80.9;98420;;;;
2022/11/15 15:26:57;;;;;;;27.7;34.5;;;;;;;9.9;81.4;98400;;;;
2022/11/15 15:36:57;;;;;;;27.7;34.5;;;;;;;9.8;81.7;98400;;;;
2022/11/15 15:47:57;;;;;;;27.7;34.5;;;;;;;9.6;82.6;98400;;;;
2022/11/15 15:57:57;;;;;;;48.7;59.6;;;;;;;9.7;82.4;98390;;;;
2022/11/15 16:08:57;;;;;;;48.7;59.6;;;;;;;9.6;82.7;98380;;;;
2022/11/15 16:18:57;;;;;;;48.7;59.6;;;;;;;9.5;82.7;98390;;;;
2022/11/15 16:29:57;;;;;;;38.6;43.9;;;;;;;9.5;82.9;98380;;;;
2022/11/15 16:40:57;;;;;;;38.6;43.9;;;;;;;9.5;83.2;98380;;;;
2022/11/15 16:50:57;;;;;;;112.2;141.5;;;;;;;9.5;83.3;98380;;;;
2022/11/15 17:00:57;;;;;;;112.2;141.5;;;;;;;9.4;83.8;98370;;;;
2022/11/15 17:11:57;;;;;;;112.2;141.5;;;;;;;9.3;84;98360;;;;
2022/11/15 17:22:57;;;;;;;81.6;102.3;;;;;;;9.3;84.2;98350;;;;
2022/11/15 17:33:57;;;;;;;81.6;102.3;;;;;;;9.1;84.3;98340;;;;
2022/11/15 17:43:57;;;;;;;81.6;102.3;;;;;;;9.1;84.7;98340;;;;
2022/11/15 17:53:57;;;;;;;77.1;102.2;;;;;;;9.1;84.9;98330;;;;
2022/11/15 18:04:57;;;;;;;77.1;102.2;;;;;;;9.2;84.8;98320;;;;
2022/11/15 18:14:58;;;;;;;77.1;102.2;;;;;;;9.2;84.8;98300;;;;
2022/11/15 18:25:57;;;;;;;101;126.9;;;;;;;9.2;85;98290;;;;
2022/11/15 18:36:57;;;;;;;101;126.9;;;;;;;9.2;85.1;98280;;;;
2022/11/15 18:47:57;;;;;;;101;126.9;;;;;;;9.3;85.2;98280;;;;
2022/11/15 18:58:57;;;;;;;85.3;109.6;;;;;;;9.3;85;98280;;;;
2022/11/15 19:08:57;;;;;;;85.3;109.6;;;;;;;9.3;85;98270;;;;
2022/11/15 19:18:57;;;;;;;85.3;109.6;;;;;;;9.2;85.2;98260;;;;
2022/11/15 19:29:57;;;;;;;110;141.7;;;;;;;9.2;85.3;98250;;;;
2022/11/15 19:40:57;;;;;;;110;141.7;;;;;;;9.2;85.2;98250;;;;
2022/11/15 19:50:57;;;;;;;98.8;128.9;;;;;;;9.2;85.4;98250;;;;
2022/11/15 20:01:57;;;;;;;98.8;128.9;;;;;;;9;85.5;98240;;;;
2022/11/15 20:11:57;;;;;;;98.8;128.9;;;;;;;9;85.7;98230;;;;
2022/11/15 20:22:57;;;;;;;94;125.7;;;;;;;8.9;85.9;98220;;;;
2022/11/15 20:32:57;;;;;;;94;125.7;;;;;;;8.9;86.2;98210;;;;
2022/11/15 20:42:57;;;;;;;94;125.7;;;;;;;9;86.2;98210;;;;
2022/11/15 20:53:57;;;;;;;72.4;84.9;;;;;;;9;86.2;98200;;;;
2022/11/15 21:04:57;;;;;;;72.4;84.9;;;;;;;9;86.4;98190;;;;
2022/11/15 21:14:57;;;;;;;72.4;84.9;;;;;;;8.9;86.5;98180;;;;
2022/11/15 21:25:57;;;;;;;57.5;72;;;;;;;8.9;86.7;98180;;;;
2022/11/15 21:35:57;;;;;;;57.5;72;;;;;;;9;86.6;98170;;;;
2022/11/15 21:46:57;;;;;;;57.5;72;;;;;;;8.9;87;98160;;;;
2022/11/15 21:56:57;;;;;;;54.6;62.8;;;;;;;8.9;87.3;98150;;;;
2022/11/15 22:06:57;;;;;;;54.6;62.8;;;;;;;8.9;87.3;98130;;;;
2022/11/15 22:16:57;;;;;;;54.6;62.8;;;;;;;8.9;87.2;98120;;;;
2022/11/15 22:27:57;;;;;;;51.7;57.7;;;;;;;8.9;87.6;98110;;;;
2022/11/15 22:37:57;;;;;;;51.7;57.7;;;;;;;9;87.5;98110;;;;
2022/11/15 22:47:57;;;;;;;51.7;57.7;;;;;;;9.1;87.1;98100;;;;
2022/11/15 22:58:57;;;;;;;48.9;55.4;;;;;;;9.1;87.1;98100;;;;
2022/11/15 23:08:57;;;;;;;48.9;55.4;;;;;;;9.1;87;98090;;;;
2022/11/15 23:19:57;;;;;;;58.8;67.5;;;;;;;9;87;98080;;;;
2022/11/15 23:41:57;;;;;;;58.8;67.5;;;;;;;9;87.6;98050;;;;
2022/11/15 23:52:57;;;;;;;63.2;76.3;;;;;;;8.8;88;98030;;;;
